Time;durP1;ratioP1;P1;durP2;ratioP2;P2;SDS_P1;SDS_P2;PMS_P1;PMS_P2;Temp;Humidity;BMP_temperature;BMP_pressure;BME280_temperature;BME280_humidity;BME280_pressure;Samples;Min_cycle;Max_cycle;Signal;HPM_P1;HPM_P2
2024/01/03 00:00:29;;;;;;;13.57;3.00;;;;;;;11.37;71.16;98436.88;5032890;28;20212;-74
2024/01/03 00:02:56;;;;;;;10.47;2.83;;;;;;;11.28;71.53;98435.50;5033569;28;20168;-74
2024/01/03 00:05:35;;;;;;;9.93;2.97;;;;;;;11.31;71.08;98439.59;5033273;28;20184;-74
2024/01/03 00:08:04;;;;;;;14.10;3.13;;;;;;;11.32;70.86;98444.75;5032967;28;20686;-74
2024/01/03 00:10:48;;;;;;;9.50;3.03;;;;;;;11.30;70.78;98429.91;5032800;28;20691;-74
2024/01/03 00:13:33;;;;;;;8.07;2.50;;;;;;;11.25;71.55;98449.28;5033485;28;20232;-74
2024/01/03 00:16:00;;;;;;;8.50;3.57;;;;;;;11.29;70.49;98465.72;5033105;28;20624;-74
2024/01/03 00:18:36;;;;;;;16.27;4.03;;;;;;;11.29;71.03;98431.78;5032747;28;20618;-74
2024/01/03 00:21:05;;;;;;;11.07;2.97;;;;;;;11.24;71.69;98442.31;5033283;28;20294;-74
2024/01/03 00:23:42;;;;;;;13.60;4.67;;;;;;;11.16;71.46;98463.91;5034807;28;20188;-74
2024/01/03 00:26:10;;;;;;;9.50;3.00;;;;;;;11.17;71.98;98465.56;5036923;28;20628;-74
2024/01/03 00:28:39;;;;;;;7.63;3.30;;;;;;;11.07;72.93;98478.56;5036607;28;20733;-74
2024/01/03 00:31:26;;;;;;;5.00;2.30;;;;;;;10.93;73.84;98445.69;5036776;28;20695;-73
2024/01/03 00:33:53;;;;;;;8.80;2.70;;;;;;;10.73;75.18;98471.63;5035253;28;20187;-74
2024/01/03 00:36:19;;;;;;;6.47;2.40;;;;;;;10.67;75.94;98469.78;5036672;28;20199;-73
2024/01/03 00:38:46;;;;;;;7.73;2.27;;;;;;;10.61;76.97;98480.50;5036950;28;20317;-74
2024/01/03 00:41:12;;;;;;;11.03;3.00;;;;;;;10.60;76.35;98473.50;5034996;28;20238;-74
2024/01/03 00:43:40;;;;;;;19.17;3.07;;;;;;;10.60;77.33;98509.06;5035310;28;20196;-74
2024/01/03 00:46:08;;;;;;;8.10;3.53;;;;;;;10.40;79.66;98516.22;5036832;28;20192;-74
2024/01/03 00:48:35;;;;;;;7.40;2.83;;;;;;;10.26;80.98;98512.75;5036244;28;20192;-74
2024/01/03 00:51:03;;;;;;;12.27;2.70;;;;;;;10.17;81.75;98519.28;5034882;28;20203;-74
2024/01/03 00:53:31;;;;;;;16.97;3.17;;;;;;;10.16;81.27;98490.94;5036336;28;20203;-74
2024/01/03 00:55:58;;;;;;;15.20;3.73;;;;;;;10.12;81.96;98497.69;5036065;28;20283;-74
2024/01/03 00:58:24;;;;;;;14.30;3.27;;;;;;;10.10;82.10;98513.88;5036068;28;20195;-74
2024/01/03 01:00:51;;;;;;;14.43;3.03;;;;;;;10.18;81.56;98512.94;5034599;28;20212;-74
2024/01/03 01:03:18;;;;;;;17.43;3.07;;;;;;;10.22;80.96;98526.69;5036235;28;20702;-74
2024/01/03 01:05:44;;;;;;;13.50;4.37;;;;;;;10.26;80.52;98518.06;5036175;28;20192;-74
2024/01/03 01:08:11;;;;;;;8.70;3.03;;;;;;;10.34;80.42;98522.41;5036137;28;20183;-74
2024/01/03 01:10:38;;;;;;;9.30;2.47;;;;;;;10.27;80.34;98522.38;5034484;28;20223;-74
2024/01/03 01:13:04;;;;;;;12.00;3.70;;;;;;;10.37;79.10;98528.16;5034540;28;20192;-74
2024/01/03 01:15:31;;;;;;;10.80;3.33;;;;;;;10.35;79.25;98532.06;5035998;28;20192;-74
2024/01/03 01:17:57;;;;;;;13.77;3.10;;;;;;;10.34;78.96;98530.41;5035653;28;20204;-74
2024/01/03 01:20:24;;;;;;;20.50;3.30;;;;;;;10.37;78.98;98546.00;5035542;28;20266;-73
2024/01/03 01:22:50;;;;;;;10.47;3.63;;;;;;;10.36;78.84;98537.19;5035605;28;20180;-74
2024/01/03 01:25:17;;;;;;;18.97;2.63;;;;;;;10.47;78.68;98552.63;5036153;28;20172;-74
2024/01/03 01:27:44;;;;;;;7.00;3.00;;;;;;;10.42;78.92;98541.72;5035517;28;20538;-74
2024/01/03 01:30:10;;;;;;;6.87;2.43;;;;;;;10.33;80.27;98547.44;5035981;28;20691;-74
2024/01/03 01:32:37;;;;;;;12.53;3.27;;;;;;;10.21;81.76;98549.06;5034182;28;20192;-74
2024/01/03 01:35:04;;;;;;;6.53;2.77;;;;;;;10.04;83.21;98564.63;5034449;28;20187;-74
2024/01/03 01:37:30;;;;;;;9.13;2.97;;;;;;;9.98;84.41;98570.75;5035393;28;20191;-74
2024/01/03 01:39:56;;;;;;;9.90;3.53;;;;;;;9.83;84.89;98575.41;5035526;28;20619;-74
2024/01/03 01:42:25;;;;;;;19.13;3.67;;;;;;;9.76;85.52;98571.91;5035227;28;20208;-74
2024/01/03 01:44:51;;;;;;;5.53;2.17;;;;;;;9.73;86.04;98580.28;5035479;28;20674;-73
2024/01/03 01:47:18;;;;;;;11.80;3.03;;;;;;;9.73;85.89;98582.97;5035181;28;20187;-74
2024/01/03 01:49:45;;;;;;;12.37;3.90;;;;;;;9.67;86.11;98578.44;5035321;28;20208;-73
2024/01/03 01:52:14;;;;;;;8.83;2.60;;;;;;;9.71;85.33;98572.50;5035400;28;20183;-73
2024/01/03 01:54:41;;;;;;;11.03;2.63;;;;;;;9.72;86.54;98570.66;5035255;28;20603;-74
2024/01/03 01:57:09;;;;;;;14.87;4.00;;;;;;;9.71;86.28;98577.84;5035255;28;20188;-74
2024/01/03 01:59:36;;;;;;;11.00;2.93;;;;;;;9.74;85.86;98574.78;5033606;28;20228;-73
2024/01/03 02:02:04;;;;;;;12.63;3.60;;;;;;;9.72;86.54;98570.66;5035336;28;20204;-74
2024/01/03 02:04:34;;;;;;;12.70;2.70;;;;;;;9.70;86.79;98572.69;5034807;28;20195;-74
2024/01/03 02:07:00;;;;;;;9.80;2.90;;;;;;;9.68;87.77;98570.22;5035002;28;20274;-74
2024/01/03 02:09:27;;;;;;;15.43;3.00;;;;;;;9.74;87.61;98572.09;5033431;28;20192;-74
2024/01/03 02:11:53;;;;;;;11.53;3.40;;;;;;;9.84;87.84;98579.75;5034959;28;20188;-74
2024/01/03 02:14:20;;;;;;;18.47;4.03;;;;;;;9.81;87.83;98580.13;5033402;28;20192;-74
2024/01/03 02:16:46;;;;;;;11.47;3.40;;;;;;;9.83;87.58;98586.91;5033267;28;20180;-73
2024/01/03 02:19:13;;;;;;;17.53;3.63;;;;;;;9.93;86.34;98574.00;5035300;28;20594;-73
2024/01/03 02:21:41;;;;;;;17.27;3.13;;;;;;;9.96;85.55;98575.47;5034676;28;20196;-73
2024/01/03 02:24:07;;;;;;;8.33;2.87;;;;;;;9.94;85.45;98574.84;5034492;28;20241;-73
2024/01/03 02:26:33;;;;;;;13.37;2.97;;;;;;;10.04;84.74;98584.13;5034648;28;20188;-73
2024/01/03 02:29:00;;;;;;;10.90;2.80;;;;;;;10.00;84.48;98579.38;5034342;28;20660;-73
2024/01/03 02:31:26;;;;;;;9.70;2.63;;;;;;;10.05;84.18;98592.97;5034271;28;20597;-73
2024/01/03 02:33:53;;;;;;;9.57;2.77;;;;;;;10.01;83.90;98586.38;5034504;28;20690;-74
2024/01/03 02:36:20;;;;;;;10.33;2.50;;;;;;;9.99;84.66;98588.41;5034485;28;20180;-74
2024/01/03 02:38:49;;;;;;;7.43;3.13;;;;;;;10.05;83.81;98588.44;5034156;28;20241;-74
2024/01/03 02:41:16;;;;;;;8.37;2.77;;;;;;;10.15;83.74;98589.88;5034080;28;20215;-73
2024/01/03 02:43:43;;;;;;;4.33;2.87;;;;;;;10.14;83.84;98607.78;5034077;28;20183;-73
2024/01/03 02:46:09;;;;;;;9.73;4.07;;;;;;;10.21;83.23;98603.31;5034473;28;20234;-73
2024/01/03 02:48:39;;;;;;;5.73;2.33;;;;;;;10.16;83.35;98587.06;5034542;28;20172;-73
2024/01/03 02:51:06;;;;;;;8.43;2.80;;;;;;;10.10;84.30;98614.50;5033898;28;20208;-73
2024/01/03 02:53:32;;;;;;;3.83;2.83;;;;;;;10.08;85.37;98635.25;5033903;28;20184;-73
2024/01/03 02:55:58;;;;;;;3.90;2.63;;;;;;;9.91;86.45;98604.59;5033873;28;20636;-73
2024/01/03 02:58:25;;;;;;;4.20;1.90;;;;;;;9.75;88.09;98597.78;5034129;28;20177;-74
2024/01/03 03:00:51;;;;;;;9.57;3.20;;;;;;;9.69;88.97;98587.88;5033919;28;20253;-74
2024/01/03 03:03:18;;;;;;;8.97;2.67;;;;;;;9.66;89.80;98609.63;5034012;28;20172;-74
2024/01/03 03:05:44;;;;;;;15.37;3.13;;;;;;;9.55;90.26;98610.97;5033729;28;20184;-74
2024/01/03 03:08:11;;;;;;;7.60;2.77;;;;;;;9.49;91.12;98602.97;5034244;28;20184;-74
2024/01/03 03:10:37;;;;;;;7.60;2.70;;;;;;;9.48;90.90;98607.47;5033704;28;20226;-74
2024/01/03 03:13:04;;;;;;;12.47;2.80;;;;;;;9.49;90.56;98587.78;5033570;28;20708;-74
2024/01/03 03:15:31;;;;;;;5.57;2.70;;;;;;;9.48;90.58;98606.63;5033818;28;20172;-75
2024/01/03 03:17:57;;;;;;;10.30;2.50;;;;;;;9.54;89.90;98601.34;5033411;28;20738;-74
2024/01/03 03:20:24;;;;;;;8.90;2.10;;;;;;;9.53;89.90;98610.38;5033734;28;20208;-74
2024/01/03 03:22:50;;;;;;;9.97;3.30;;;;;;;9.59;89.23;98590.06;5033368;28;20215;-74
2024/01/03 03:25:16;;;;;;;4.47;2.87;;;;;;;9.69;88.17;98606.56;5033431;28;20246;-74
2024/01/03 03:27:43;;;;;;;11.53;2.93;;;;;;;9.76;85.89;98607.41;5033436;28;20238;-74
2024/01/03 03:30:10;;;;;;;6.13;2.00;;;;;;;9.83;86.03;98623.44;5033279;28;20269;-74
2024/01/03 03:32:37;;;;;;;10.13;2.13;;;;;;;9.76;85.82;98611.94;5033619;28;20526;-74
2024/01/03 03:35:04;;;;;;;6.43;2.10;;;;;;;9.78;85.78;98621.38;5033557;28;20191;-74
2024/01/03 03:37:30;;;;;;;13.30;2.83;;;;;;;9.80;85.92;98616.66;5033279;28;20538;-74
2024/01/03 03:39:56;;;;;;;6.40;3.50;;;;;;;9.73;86.30;98630.97;5033210;28;20211;-74
2024/01/03 03:42:24;;;;;;;10.10;2.53;;;;;;;9.72;86.52;98624.81;5033700;28;20215;-74
2024/01/03 03:44:50;;;;;;;2.57;2.33;;;;;;;9.75;85.74;98636.97;5033483;28;20176;-75
2024/01/03 03:47:16;;;;;;;6.60;1.93;;;;;;;9.65;87.34;98645.31;5033735;28;20259;-74
2024/01/03 03:49:43;;;;;;;11.13;2.93;;;;;;;9.53;88.40;98645.06;5033294;28;20218;-74
2024/01/03 03:52:09;;;;;;;5.47;2.23;;;;;;;9.41;89.45;98649.28;5033675;28;20168;-74
2024/01/03 03:54:36;;;;;;;4.03;2.30;;;;;;;9.30;90.27;98659.63;5033327;28;20218;-74
2024/01/03 03:57:02;;;;;;;6.57;2.43;;;;;;;9.27;90.35;98652.03;5033123;28;20593;-74
2024/01/03 03:59:29;;;;;;;4.03;1.97;;;;;;;9.28;89.98;98656.34;5036488;28;20192;-74
2024/01/03 04:01:55;;;;;;;7.87;2.83;;;;;;;9.37;89.19;98650.69;5037041;28;20211;-72
2024/01/03 04:04:22;;;;;;;13.10;2.83;;;;;;;9.35;89.19;98655.38;5037099;28;20682;-72
2024/01/03 04:06:48;;;;;;;7.47;1.97;;;;;;;9.41;87.96;98648.44;5037042;28;20203;-72
2024/01/03 04:09:15;;;;;;;8.17;2.07;;;;;;;9.45;87.83;98647.03;5037208;28;20544;-74
2024/01/03 04:11:43;;;;;;;10.67;2.53;;;;;;;9.52;87.18;98654.06;5036948;28;20192;-75
2024/01/03 04:14:10;;;;;;;8.40;2.10;;;;;;;9.53;87.33;98652.22;5036881;28;20191;-75
2024/01/03 04:16:37;;;;;;;6.70;3.00;;;;;;;9.58;86.96;98655.13;5035801;28;20612;-75
2024/01/03 04:19:04;;;;;;;12.27;2.97;;;;;;;9.60;86.43;98643.25;5036797;28;20188;-75
2024/01/03 04:21:31;;;;;;;11.97;2.90;;;;;;;9.68;85.92;98650.25;5036632;28;20723;-75
2024/01/03 04:23:57;;;;;;;9.07;2.30;;;;;;;9.73;85.57;98644.31;5036711;28;20589;-75
2024/01/03 04:26:25;;;;;;;6.03;2.40;;;;;;;9.71;86.39;98668.56;5036681;28;20194;-75
2024/01/03 04:28:52;;;;;;;11.73;3.40;;;;;;;9.61;87.30;98660.06;5037177;28;20180;-75
2024/01/03 04:31:18;;;;;;;6.23;2.40;;;;;;;9.54;88.25;98656.53;5036501;28;20212;-75
2024/01/03 04:33:45;;;;;;;12.30;2.37;;;;;;;9.56;88.79;98668.66;5036801;28;20198;-75
2024/01/03 04:36:12;;;;;;;19.70;2.60;;;;;;;9.57;87.72;98677.50;5037031;28;20187;-75
2024/01/03 04:38:38;;;;;;;3.47;2.70;;;;;;;9.61;87.36;98665.41;5036955;28;20192;-75
2024/01/03 04:41:04;;;;;;;3.63;2.00;;;;;;;9.64;87.12;98675.69;5037163;28;20218;-75
2024/01/03 04:43:31;;;;;;;11.17;2.20;;;;;;;9.58;88.16;98668.47;5036255;28;20207;-75
2024/01/03 04:45:57;;;;;;;8.87;2.70;;;;;;;9.50;88.04;98692.63;5036528;28;20656;-76
2024/01/03 04:48:24;;;;;;;4.43;2.73;;;;;;;9.48;88.80;98660.81;5036283;28;20184;-76
2024/01/03 04:50:50;;;;;;;5.00;2.20;;;;;;;9.50;89.11;98681.97;5036104;28;20204;-76
2024/01/03 04:53:17;;;;;;;8.03;2.20;;;;;;;9.48;89.12;98658.13;5036184;28;20208;-76
2024/01/03 04:55:44;;;;;;;6.40;2.67;;;;;;;9.48;89.79;98654.66;5036100;28;20187;-76
2024/01/03 04:58:10;;;;;;;8.87;2.60;;;;;;;9.49;89.48;98669.63;5036051;28;20196;-76
2024/01/03 05:00:37;;;;;;;8.70;2.70;;;;;;;9.58;87.53;98669.31;5036241;28;20214;-76
2024/01/03 05:03:04;;;;;;;6.30;2.53;;;;;;;9.61;87.36;98668.91;5036452;28;20211;-76
2024/01/03 05:05:30;;;;;;;12.20;2.90;;;;;;;9.64;86.87;98670.34;5036193;28;20209;-76
2024/01/03 05:07:57;;;;;;;14.27;2.93;;;;;;;9.70;86.42;98674.06;5035884;28;20242;-76
2024/01/03 05:10:23;;;;;;;4.33;3.07;;;;;;;9.71;86.56;98673.91;5034421;28;20258;-76
2024/01/03 05:12:50;;;;;;;10.20;3.07;;;;;;;9.78;85.65;98687.25;5036098;28;20206;-76
2024/01/03 05:15:18;;;;;;;5.23;2.10;;;;;;;9.81;84.86;98666.34;5036325;28;20188;-76
2024/01/03 05:17:46;;;;;;;6.43;2.00;;;;;;;9.81;84.09;98685.03;5035635;28;20192;-76
2024/01/03 05:20:13;;;;;;;7.37;1.57;;;;;;;9.84;83.74;98665.13;5036205;28;20291;-76
2024/01/03 05:22:39;;;;;;;4.73;2.70;;;;;;;9.87;83.43;98676.25;5035815;28;20227;-76
2024/01/03 05:25:06;;;;;;;5.73;2.27;;;;;;;9.87;83.33;98681.56;5035639;28;20242;-76
2024/01/03 05:27:32;;;;;;;9.03;2.00;;;;;;;9.93;82.78;98682.66;5035575;28;20186;-75
2024/01/03 05:29:59;;;;;;;17.57;2.13;;;;;;;10.01;82.85;98683.28;5035476;28;20860;-76
2024/01/03 05:32:26;;;;;;;8.00;2.30;;;;;;;10.01;82.64;98682.47;5036024;28;20184;-76
2024/01/03 05:34:53;;;;;;;5.40;2.77;;;;;;;10.08;82.31;98672.66;5035729;28;20286;-76
2024/01/03 05:37:19;;;;;;;5.93;2.43;;;;;;;10.06;82.45;98701.38;5035342;28;20192;-76
2024/01/03 05:39:46;;;;;;;6.07;1.47;;;;;;;10.03;80.98;98691.91;5035426;28;20294;-76
2024/01/03 05:42:12;;;;;;;3.37;1.97;;;;;;;9.98;81.25;98702.38;5035236;28;20212;-76
2024/01/03 05:44:39;;;;;;;6.37;1.90;;;;;;;9.96;81.59;98703.59;5035286;28;20591;-76
2024/01/03 05:47:05;;;;;;;1.67;1.63;;;;;;;9.97;81.14;98700.72;5035467;28;20199;-76
2024/01/03 05:49:34;;;;;;;6.30;2.70;;;;;;;9.97;80.92;98703.38;5035366;28;20616;-76
2024/01/03 05:52:01;;;;;;;4.70;1.90;;;;;;;10.02;80.47;98702.78;5034468;28;20180;-76
2024/01/03 05:54:28;;;;;;;5.30;1.70;;;;;;;9.97;80.77;98705.25;5035357;28;20625;-76
2024/01/03 05:56:54;;;;;;;2.70;1.60;;;;;;;10.08;80.48;98707.34;5035035;28;20185;-76
2024/01/03 05:59:21;;;;;;;1.83;1.57;;;;;;;10.01;80.94;98709.97;5035096;28;20274;-75
2024/01/03 06:01:47;;;;;;;1.40;1.20;;;;;;;9.98;81.18;98734.41;5035125;28;20259;-76
2024/01/03 06:04:14;;;;;;;2.50;1.40;;;;;;;9.96;81.44;98720.44;5035162;28;20587;-76
2024/01/03 06:06:41;;;;;;;4.53;1.17;;;;;;;9.96;81.45;98725.78;5034819;28;20196;-75
2024/01/03 06:09:08;;;;;;;2.03;1.87;;;;;;;10.02;81.74;98713.47;5034770;28;20557;-75
2024/01/03 06:11:35;;;;;;;1.67;1.67;;;;;;;10.00;82.23;98719.03;5034631;28;20265;-76
2024/01/03 06:14:01;;;;;;;1.70;1.60;;;;;;;10.05;82.63;98721.94;5035198;28;20184;-76
2024/01/03 06:16:28;;;;;;;10.20;2.00;;;;;;;10.03;82.48;98720.47;5034672;28;20216;-76
2024/01/03 06:18:54;;;;;;;3.03;2.83;;;;;;;9.99;83.15;98722.69;5034498;28;20660;-76
2024/01/03 06:21:21;;;;;;;3.97;1.63;;;;;;;9.96;83.35;98688.41;5034003;28;20208;-75
2024/01/03 06:23:47;;;;;;;2.23;2.07;;;;;;;10.03;83.09;98712.44;5034928;28;20266;-76
2024/01/03 06:26:14;;;;;;;5.93;2.13;;;;;;;10.02;83.31;98708.97;5034710;28;20782;-76
2024/01/03 06:28:40;;;;;;;4.50;2.07;;;;;;;9.98;83.35;98706.88;5034382;28;20188;-76
2024/01/03 06:31:06;;;;;;;5.50;1.60;;;;;;;9.91;83.68;98706.84;5034833;28;20212;-76
2024/01/03 06:33:33;;;;;;;3.20;2.10;;;;;;;9.94;83.95;98716.28;5034536;28;20246;-76
2024/01/03 06:36:00;;;;;;;2.30;2.20;;;;;;;9.85;84.54;98707.63;5034214;28;20193;-76
2024/01/03 06:38:26;;;;;;;2.73;1.53;;;;;;;9.81;84.47;98713.53;5034464;28;20188;-76
2024/01/03 06:40:53;;;;;;;5.10;2.10;;;;;;;9.77;84.92;98717.63;5034065;28;20789;-76
2024/01/03 06:43:19;;;;;;;6.17;2.10;;;;;;;9.75;85.21;98701.84;5034039;28;20203;-75
2024/01/03 06:45:46;;;;;;;3.30;2.10;;;;;;;9.70;85.48;98700.75;5034580;28;20199;-75
2024/01/03 06:48:12;;;;;;;5.00;1.53;;;;;;;9.63;85.42;98709.53;5034016;28;20229;-75
2024/01/03 06:50:39;;;;;;;2.93;2.47;;;;;;;9.64;86.65;98721.03;5033937;28;20212;-75
2024/01/03 06:53:06;;;;;;;9.13;2.70;;;;;;;9.69;86.47;98723.94;5034201;28;20219;-75
2024/01/03 06:55:32;;;;;;;4.93;2.10;;;;;;;9.67;85.85;98722.50;5033887;28;20188;-75
2024/01/03 06:57:58;;;;;;;7.50;2.30;;;;;;;9.66;86.33;98724.34;5033838;28;20183;-75
2024/01/03 07:00:25;;;;;;;9.03;2.60;;;;;;;9.58;87.62;98708.50;5033999;28;20220;-75
2024/01/03 07:02:51;;;;;;;7.17;2.47;;;;;;;9.64;87.26;98713.03;5033714;28;20212;-75
2024/01/03 07:05:18;;;;;;;7.50;2.43;;;;;;;9.63;86.73;98712.19;5033729;28;20195;-75
2024/01/03 07:07:44;;;;;;;5.23;2.00;;;;;;;9.59;87.17;98713.59;5034196;28;20194;-76
2024/01/03 07:10:11;;;;;;;5.50;2.33;;;;;;;9.66;87.20;98712.84;5033624;28;20636;-75
2024/01/03 07:12:38;;;;;;;3.43;2.57;;;;;;;9.64;87.23;98718.38;5033846;28;20192;-75
2024/01/03 07:15:06;;;;;;;4.60;1.93;;;;;;;9.61;87.69;98713.44;5033580;28;20230;-75
2024/01/03 07:17:32;;;;;;;2.63;2.43;;;;;;;9.56;88.43;98705.19;5032947;28;20199;-75
2024/01/03 07:19:59;;;;;;;7.53;2.47;;;;;;;9.44;89.99;98715.56;5033643;28;20574;-75
2024/01/03 07:22:26;;;;;;;3.10;1.50;;;;;;;9.38;91.01;98702.97;5033904;28;20541;-75
2024/01/03 07:24:52;;;;;;;3.50;1.57;;;;;;;9.41;90.73;98707.97;5033716;28;20195;-75
2024/01/03 07:27:19;;;;;;;5.27;2.83;;;;;;;9.35;91.19;98698.03;5033624;28;20211;-75
2024/01/03 07:29:46;;;;;;;3.37;2.13;;;;;;;9.32;91.49;98697.63;5033277;28;20212;-75
2024/01/03 07:32:12;;;;;;;6.33;2.50;;;;;;;9.28;92.32;98689.19;5033311;28;20192;-75
2024/01/03 07:34:39;;;;;;;2.90;2.13;;;;;;;9.31;92.67;98704.78;5033070;28;20199;-75
2024/01/03 07:37:05;;;;;;;2.93;2.63;;;;;;;9.30;93.26;98696.97;5033252;28;20199;-75
2024/01/03 07:39:32;;;;;;;5.13;2.50;;;;;;;9.25;93.63;98692.22;5033168;28;20278;-75
2024/01/03 07:41:59;;;;;;;2.83;2.53;;;;;;;9.28;93.99;98693.69;5033700;28;20196;-75
2024/01/03 07:44:25;;;;;;;7.67;3.40;;;;;;;9.30;94.24;98687.13;5033176;28;20664;-75
2024/01/03 07:46:52;;;;;;;9.87;4.13;;;;;;;9.36;94.33;98693.53;5033134;28;20558;-75
2024/01/03 07:49:18;;;;;;;4.83;4.40;;;;;;;9.39;94.73;98685.97;5033495;28;20195;-75
2024/01/03 07:51:49;;;;;;;8.60;4.50;;;;;;;9.40;94.40;98692.97;5033296;28;20271;-75
2024/01/03 07:54:15;;;;;;;7.47;3.73;;;;;;;9.40;94.47;98690.28;5033088;28;20184;-75
2024/01/03 07:56:42;;;;;;;11.47;4.33;;;;;;;9.38;94.33;98689.66;5033706;28;20199;-77
2024/01/03 07:59:09;;;;;;;9.57;3.63;;;;;;;9.33;94.51;98678.78;5033533;28;20279;-76
2024/01/03 08:01:35;;;;;;;9.20;3.70;;;;;;;9.36;94.45;98682.88;5032903;28;20208;-75
2024/01/03 08:04:04;;;;;;;11.50;2.77;;;;;;;9.40;93.69;98668.13;5032894;28;20208;-75
2024/01/03 08:06:31;;;;;;;7.00;2.27;;;;;;;9.32;93.03;98698.44;5032924;28;20195;-76
2024/01/03 08:08:57;;;;;;;8.80;2.53;;;;;;;9.45;87.74;98685.22;5032969;28;20203;-75
2024/01/03 08:11:24;;;;;;;7.87;2.17;;;;;;;9.59;86.19;98681.59;5032966;28;20629;-75
2024/01/03 08:13:50;;;;;;;10.43;2.20;;;;;;;9.57;84.75;98699.66;5033206;28;20215;-76
2024/01/03 08:16:17;;;;;;;2.87;1.70;;;;;;;9.55;84.70;98708.84;5032868;28;20250;-76
2024/01/03 08:18:44;;;;;;;5.03;1.33;;;;;;;9.52;84.18;98725.25;5032867;28;20211;-76
2024/01/03 08:21:11;;;;;;;4.83;1.67;;;;;;;9.38;83.61;98713.66;5032769;28;20212;-75
2024/01/03 08:23:38;;;;;;;1.77;1.77;;;;;;;9.30;83.73;98726.28;5033307;28;20200;-75
2024/01/03 08:26:11;;;;;;;6.70;1.40;;;;;;;9.24;83.82;98735.09;5032764;28;20656;-75
2024/01/03 08:28:41;;;;;;;1.57;1.40;;;;;;;9.17;85.06;98751.00;5033369;28;20305;-76
2024/01/03 08:31:13;;;;;;;1.20;1.10;;;;;;;9.06;85.52;98768.34;5032829;28;20608;-76
2024/01/03 08:33:41;;;;;;;1.57;1.47;;;;;;;9.01;85.13;98773.41;5032977;28;20184;-76
2024/01/03 08:36:11;;;;;;;1.37;1.30;;;;;;;8.93;85.20;98764.72;5032962;28;20216;-76
2024/01/03 08:38:38;;;;;;;1.53;1.37;;;;;;;8.90;85.56;98776.59;5032690;28;20188;-76
2024/01/03 08:41:19;;;;;;;1.30;1.20;;;;;;;8.79;87.43;98795.69;5032666;28;20212;-76
2024/01/03 08:43:46;;;;;;;2.73;1.20;;;;;;;8.69;86.67;98773.88;5033135;28;20660;-76
2024/01/03 08:46:13;;;;;;;1.90;1.17;;;;;;;8.66;88.25;98792.88;5036369;28;20643;-76
2024/01/03 08:48:41;;;;;;;1.13;1.13;;;;;;;8.58;88.47;98787.66;5036298;28;20188;-76
2024/01/03 08:51:12;;;;;;;1.30;1.20;;;;;;;8.63;89.22;98793.25;5036238;28;20218;-76
2024/01/03 08:53:40;;;;;;;1.10;1.10;;;;;;;8.57;89.77;98794.81;5036526;28;20191;-77
2024/01/03 08:56:16;;;;;;;1.97;1.27;;;;;;;8.57;90.38;98784.16;5036222;28;20191;-76
2024/01/03 08:58:45;;;;;;;2.93;1.43;;;;;;;8.60;91.08;98786.47;5036414;28;20180;-76
2024/01/03 09:01:18;;;;;;;1.43;1.43;;;;;;;8.62;90.86;98803.09;5036045;28;20204;-76
2024/01/03 09:03:48;;;;;;;2.13;2.10;;;;;;;8.62;91.29;98805.75;5036248;28;20287;-76
2024/01/03 09:06:22;;;;;;;2.70;2.50;;;;;;;8.64;91.95;98797.59;5036571;28;20179;-76
2024/01/03 09:08:50;;;;;;;4.77;2.93;;;;;;;8.62;92.15;98807.59;5036282;28;20188;-76
2024/01/03 09:11:28;;;;;;;4.10;1.90;;;;;;;8.62;92.22;98797.75;5035865;28;20639;-76
2024/01/03 09:13:56;;;;;;;6.27;2.70;;;;;;;8.61;92.69;98805.97;5036341;28;20171;-76
2024/01/03 09:16:24;;;;;;;3.60;2.97;;;;;;;8.63;93.41;98806.59;5035770;28;20617;-76
2024/01/03 09:18:50;;;;;;;3.43;2.63;;;;;;;8.71;92.59;98807.31;5035693;28;20200;-77
2024/01/03 09:21:17;;;;;;;6.80;2.30;;;;;;;8.74;92.40;98815.94;5036084;28;20292;-76
2024/01/03 09:23:44;;;;;;;4.40;2.00;;;;;;;8.75;92.40;98812.25;5035554;28;20200;-76
2024/01/03 09:26:11;;;;;;;3.60;2.00;;;;;;;8.79;92.40;98817.03;5035897;28;20267;-76
2024/01/03 09:28:38;;;;;;;4.47;1.77;;;;;;;8.83;91.77;98817.47;5035549;28;20656;-76
2024/01/03 09:31:05;;;;;;;4.33;1.50;;;;;;;8.83;91.43;98804.13;5035450;28;20207;-76
2024/01/03 09:33:32;;;;;;;6.80;1.40;;;;;;;8.95;91.12;98814.16;5036033;28;20270;-76
2024/01/03 09:35:59;;;;;;;7.23;2.30;;;;;;;9.04;90.32;98813.00;5036074;28;20758;-76
2024/01/03 09:38:26;;;;;;;6.37;2.70;;;;;;;9.02;90.35;98809.72;5035398;28;20188;-76
2024/01/03 09:40:53;;;;;;;14.57;2.43;;;;;;;9.10;90.11;98817.59;5035353;28;20204;-76
2024/01/03 09:43:20;;;;;;;6.10;3.07;;;;;;;9.12;89.91;98825.41;5035227;28;20626;-76
2024/01/03 09:45:48;;;;;;;5.70;2.67;;;;;;;9.18;89.26;98814.81;5035262;28;20188;-76
2024/01/03 09:48:14;;;;;;;9.03;2.73;;;;;;;9.20;89.90;98824.47;5035446;28;20209;-76
2024/01/03 09:50:41;;;;;;;14.80;3.47;;;;;;;9.27;88.73;98826.19;5035174;28;20214;-76
2024/01/03 09:53:10;;;;;;;6.03;3.10;;;;;;;9.32;89.23;98836.28;5035111;28;20219;-76
2024/01/03 09:55:38;;;;;;;7.67;2.37;;;;;;;9.36;88.64;98841.03;5034295;28;20188;-76
2024/01/03 09:58:04;;;;;;;9.50;3.23;;;;;;;9.38;89.12;98849.66;5035004;28;20238;-76
2024/01/03 10:00:31;;;;;;;11.40;3.07;;;;;;;9.26;90.44;98842.34;5035211;28;20216;-76
2024/01/03 10:03:04;;;;;;;4.80;2.33;;;;;;;9.17;91.44;98855.81;5035418;28;20575;-76
2024/01/03 10:05:31;;;;;;;3.33;2.30;;;;;;;9.18;91.83;98864.63;5035459;28;20177;-76
2024/01/03 10:07:58;;;;;;;9.60;2.27;;;;;;;9.09;92.60;98866.59;5033558;28;20220;-76
2024/01/03 10:10:30;;;;;;;8.73;2.20;;;;;;;9.00;93.10;98851.72;5035536;28;20558;-76
2024/01/03 10:12:56;;;;;;;18.70;3.30;;;;;;;9.10;93.09;98859.41;5035011;28;20187;-76
2024/01/03 10:15:23;;;;;;;7.43;2.83;;;;;;;9.07;92.81;98846.47;5034629;28;20203;-76
2024/01/03 10:18:04;;;;;;;14.30;3.07;;;;;;;9.13;92.67;98849.19;5034470;28;20258;-76
2024/01/03 10:20:31;;;;;;;5.77;2.43;;;;;;;9.30;91.19;98854.28;5034550;28;20576;-76
2024/01/03 10:23:21;;;;;;;7.37;2.47;;;;;;;9.41;90.31;98848.47;5034696;28;20184;-76
2024/01/03 10:25:55;;;;;;;11.07;3.67;;;;;;;9.48;89.49;98846.69;5035033;28;20207;-76
2024/01/03 10:28:21;;;;;;;9.43;2.13;;;;;;;9.62;88.04;98843.97;5034698;28;20185;-76
2024/01/03 10:30:52;;;;;;;7.57;2.30;;;;;;;9.78;88.05;98837.53;5034287;28;20212;-76
2024/01/03 10:33:20;;;;;;;4.73;2.80;;;;;;;9.93;86.13;98840.91;5034356;28;20246;-76
2024/01/03 10:35:47;;;;;;;7.63;3.00;;;;;;;10.07;85.49;98829.34;5034597;28;20246;-76
2024/01/03 10:38:15;;;;;;;10.00;2.70;;;;;;;10.26;84.03;98829.69;5034819;28;20191;-76
2024/01/03 10:40:41;;;;;;;16.80;2.50;;;;;;;10.34;83.01;98827.69;5034409;28;20669;-77
2024/01/03 10:43:08;;;;;;;7.03;2.33;;;;;;;10.38;81.90;98836.97;5034646;28;20547;-76
2024/01/03 10:45:35;;;;;;;4.53;2.60;;;;;;;10.41;82.21;98833.91;5034094;28;20196;-76
2024/01/03 10:48:03;;;;;;;8.23;2.07;;;;;;;10.36;81.07;98838.16;5034359;28;20192;-76
2024/01/03 10:50:30;;;;;;;6.23;2.63;;;;;;;10.28;81.84;98827.66;5034156;28;20215;-76
2024/01/03 10:52:57;;;;;;;2.17;2.03;;;;;;;10.34;82.21;98841.06;5033980;28;20194;-76
2024/01/03 10:55:39;;;;;;;6.77;2.50;;;;;;;10.32;81.11;98827.06;5034250;28;20242;-76
2024/01/03 10:58:13;;;;;;;9.57;2.73;;;;;;;10.38;81.37;98842.31;5034459;28;20263;-76
2024/01/03 11:00:46;;;;;;;3.13;2.93;;;;;;;10.39;80.94;98835.97;5033727;28;20714;-76
2024/01/03 11:03:18;;;;;;;4.87;2.60;;;;;;;10.42;80.42;98845.41;5034002;28;20182;-76
2024/01/03 11:06:04;;;;;;;8.83;2.83;;;;;;;10.45;80.72;98840.50;5033815;28;20238;-76
2024/01/03 11:08:39;;;;;;;16.63;2.63;;;;;;;10.49;81.23;98851.59;5033696;28;20585;-76
2024/01/03 11:11:06;;;;;;;10.10;2.30;;;;;;;10.42;79.98;98832.06;5033678;28;20579;-76
2024/01/03 11:13:33;;;;;;;2.47;2.23;;;;;;;10.38;79.45;98842.31;5033668;28;20180;-76
2024/01/03 11:16:02;;;;;;;6.20;2.80;;;;;;;10.39;80.24;98841.31;5033836;28;20196;-76
2024/01/03 11:18:44;;;;;;;7.93;3.07;;;;;;;10.39;80.54;98832.47;5033440;28;20206;-76
2024/01/03 11:21:20;;;;;;;7.60;2.83;;;;;;;10.57;79.25;98824.72;5033493;28;20208;-76
2024/01/03 11:23:51;;;;;;;4.23;2.60;;;;;;;10.58;79.63;98839.75;5033987;28;20546;-76
2024/01/03 11:26:17;;;;;;;7.33;2.63;;;;;;;10.58;79.53;98833.56;5033626;28;20192;-76
2024/01/03 11:28:50;;;;;;;10.43;2.43;;;;;;;10.68;79.48;98824.19;5033418;28;20238;-76
2024/01/03 11:31:54;;;;;;;6.07;2.60;;;;;;;10.69;79.58;98828.50;5033342;28;20207;-75
2024/01/03 11:34:44;;;;;;;7.30;3.20;;;;;;;10.82;80.44;98814.38;5033361;28;20545;-76
2024/01/03 11:37:16;;;;;;;8.80;3.33;;;;;;;10.82;79.85;98820.53;5033275;28;20184;-76
2024/01/03 11:39:45;;;;;;;6.37;2.70;;;;;;;10.88;79.94;98838.44;5033523;28;20575;-76